^^
Datos históricos de la estación: Murcia-Puente Tocinos
Diario Informe para Febrero 12, 2019 Unidades:  Ambas    Inglés   Métrico
Diario Semanal Mensual Anual Configurable
  Máximo: Mínimo: Media:
Temperatura: 61.5 °F /  16.4 °C 46.9 °F /  8.3 °C 54.3 °F /  12.4 °C
Punto de rocio: 48 °F /  8.9 °C 41.9 °F /  5.5 °C 45.1 °F /  7.3 °C
Humedad: 87% 51% 72%
Velocidad viento: 8mph /  12.9km/h - 2.9mph /  4.7km/h
Racha viento: 13mph /  20.9km/h - -
Viento- - East
Presión: 30.5 in /  1031.9 hPa 30.4 in /  1028.5 hPa -
Precipitación: 0 in /  0.0 mm    
Historical Graphs
 
 
Tabla de datos para Febrero 12, 2019
Hora Temperatura Punto de rocio Presión Viento Velocidad viento Racha viento Humedad Intensidad lluvia(por hora) Nubes
00:00 55 °F /  12.8 °C 48 °F /  8.9 °C 30.4in /  1028.6hPa NE 5mph /  8.0km/h 8mph /  12.9km/h 77% 0in /  0.0mm CLR
00:05 55 °F /  12.8 °C 48 °F /  8.9 °C 30.4in /  1028.5hPa NNE 5mph /  8.0km/h 7mph /  11.3km/h 77% 0in /  0.0mm CLR
00:10 54.9 °F /  12.7 °C 47.8 °F /  8.8 °C 30.4in /  1028.5hPa NNE 4mph /  6.4km/h 2.9mph /  4.7km/h 77% 0in /  0.0mm CLR
00:15 54.9 °F /  12.7 °C 47.8 °F /  8.8 °C 30.4in /  1028.5hPa NNE 5mph /  8.0km/h 4mph /  6.4km/h 77% 0in /  0.0mm CLR
00:20 54.9 °F /  12.7 °C 47.8 °F /  8.8 °C 30.4in /  1028.6hPa NNE 2mph /  3.2km/h 5mph /  8.0km/h 77% 0in /  0.0mm CLR
00:25 54.9 °F /  12.7 °C 47.8 °F /  8.8 °C 30.4in /  1028.6hPa NNE 1.8mph /  2.9km/h 4.6mph /  7.4km/h 77% 0in /  0.0mm CLR
00:30 54.9 °F /  12.7 °C 47.8 °F /  8.8 °C 30.4in /  1028.6hPa NNE 2mph /  3.2km/h 5mph /  8.0km/h 77% 0in /  0.0mm CLR
00:35 54.9 °F /  12.7 °C 47.8 °F /  8.8 °C 30.4in /  1028.8hPa North 2mph /  3.2km/h 5mph /  8.0km/h 77% 0in /  0.0mm CLR
00:40 54.7 °F /  12.6 °C 47.7 °F /  8.7 °C 30.4in /  1028.8hPa NNW 2mph /  3.2km/h 4mph /  6.4km/h 77% 0in /  0.0mm CLR
00:45 54.7 °F /  12.6 °C 47.7 °F /  8.7 °C 30.4in /  1028.8hPa North 2mph /  3.2km/h 5mph /  8.0km/h 77% 0in /  0.0mm CLR
00:50 54.7 °F /  12.6 °C 47.3 °F /  8.5 °C 30.4in /  1028.8hPa NNE 2.4mph /  3.9km/h 2.3mph /  3.7km/h 76% 0in /  0.0mm CLR
00:55 54.7 °F /  12.6 °C 47.3 °F /  8.5 °C 30.4in /  1028.8hPa NNE 2.4mph /  3.9km/h 2.3mph /  3.7km/h 76% 0in /  0.0mm CLR
01:00 54.5 °F /  12.5 °C 47.1 °F /  8.4 °C 30.4in /  1028.8hPa NNE 2mph /  3.2km/h 3mph /  4.8km/h 76% 0in /  0.0mm CLR
01:05 54.5 °F /  12.5 °C 47.1 °F /  8.4 °C 30.4in /  1028.7hPa NNE 2mph /  3.2km/h 5mph /  8.0km/h 76% 0in /  0.0mm CLR
01:10 54.5 °F /  12.5 °C 46.8 °F /  8.2 °C 30.4in /  1028.7hPa NE 2mph /  3.2km/h 5mph /  8.0km/h 75% 0in /  0.0mm CLR
01:15 54.5 °F /  12.5 °C 47.1 °F /  8.4 °C 30.4in /  1028.7hPa NE 2mph /  3.2km/h 3mph /  4.8km/h 76% 0in /  0.0mm CLR
01:20 54.5 °F /  12.5 °C 47.1 °F /  8.4 °C 30.4in /  1028.8hPa NE 1mph /  1.6km/h 3mph /  4.8km/h 76% 0in /  0.0mm CLR
01:25 54.5 °F /  12.5 °C 47.1 °F /  8.4 °C 30.4in /  1028.8hPa NE 1mph /  1.6km/h 3mph /  4.8km/h 76% 0in /  0.0mm CLR
01:30 54.3 °F /  12.4 °C 46.9 °F /  8.3 °C 30.4in /  1028.8hPa NE 1mph /  1.6km/h 4mph /  6.4km/h 76% 0in /  0.0mm CLR
01:35 54.3 °F /  12.4 °C 46.9 °F /  8.3 °C 30.4in /  1028.7hPa NNE 1mph /  1.6km/h 3mph /  4.8km/h 76% 0in /  0.0mm CLR
01:40 54.3 °F /  12.4 °C 46.9 °F /  8.3 °C 30.4in /  1028.7hPa NNE 2mph /  3.2km/h   76% 0in /  0.0mm CLR
01:45 54.1 °F /  12.3 °C 46.8 °F /  8.2 °C 30.4in /  1028.7hPa NNE 2mph /  3.2km/h 3mph /  4.8km/h 76% 0in /  0.0mm CLR
01:50 54.1 °F /  12.3 °C 46.8 °F /  8.2 °C 30.4in /  1028.6hPa NNE 1mph /  1.6km/h 3mph /  4.8km/h 76% 0in /  0.0mm CLR
01:55 54.1 °F /  12.3 °C 46.8 °F /  8.2 °C 30.4in /  1028.6hPa NNE 1.4mph /  2.3km/h 4.6mph /  7.4km/h 76% 0in /  0.0mm CLR
02:00 54.1 °F /  12.3 °C 46.4 °F /  8.0 °C 30.4in /  1028.6hPa NNE 2mph /  3.2km/h 5mph /  8.0km/h 75% 0in /  0.0mm CLR
02:05 54.3 °F /  12.4 °C 46.6 °F /  8.1 °C 30.4in /  1028.6hPa NE 2mph /  3.2km/h 6mph /  9.7km/h 75% 0in /  0.0mm CLR
02:10 54.3 °F /  12.4 °C 46.6 °F /  8.1 °C 30.4in /  1028.6hPa NE 3.6mph /  5.8km/h 3.5mph /  5.6km/h 75% 0in /  0.0mm CLR
02:15 54.3 °F /  12.4 °C 46.6 °F /  8.1 °C 30.4in /  1028.6hPa NE 3mph /  4.8km/h 4mph /  6.4km/h 75% 0in /  0.0mm CLR
02:20 54.3 °F /  12.4 °C 46.2 °F /  7.9 °C 30.4in /  1028.6hPa NE 2.4mph /  3.9km/h 3.5mph /  5.6km/h 74% 0in /  0.0mm CLR
02:25 54.3 °F /  12.4 °C 46.2 °F /  7.9 °C 30.4in /  1028.6hPa NE 2.4mph /  3.9km/h 3.1mph /  5.0km/h 74% 0in /  0.0mm CLR
02:30 54.3 °F /  12.4 °C 46.2 °F /  7.9 °C 30.4in /  1028.6hPa NE 2mph /  3.2km/h 5mph /  8.0km/h 74% 0in /  0.0mm CLR
02:35 54.3 °F /  12.4 °C 46.2 °F /  7.9 °C 30.4in /  1028.6hPa NE 2mph /  3.2km/h 5mph /  8.0km/h 74% 0in /  0.0mm CLR
02:40 54.3 °F /  12.4 °C 46.2 °F /  7.9 °C 30.4in /  1028.6hPa NE 2.4mph /  3.9km/h 3.5mph /  5.6km/h 74% 0in /  0.0mm CLR
02:45 54.1 °F /  12.3 °C 46 °F /  7.8 °C 30.4in /  1028.6hPa NE 2.4mph /  3.9km/h 2.9mph /  4.7km/h 74% 0in /  0.0mm CLR
02:50 54.1 °F /  12.3 °C 46 °F /  7.8 °C 30.4in /  1028.6hPa NE 2mph /  3.2km/h 3.5mph /  5.6km/h 74% 0in /  0.0mm CLR
02:55 54.1 °F /  12.3 °C 46 °F /  7.8 °C 30.4in /  1028.6hPa NE 2mph /  3.2km/h 5mph /  8.0km/h 74% 0in /  0.0mm CLR
03:00 54.1 °F /  12.3 °C 46 °F /  7.8 °C 30.4in /  1028.6hPa NE 2mph /  3.2km/h 4mph /  6.4km/h 74% 0in /  0.0mm CLR
03:05 54.1 °F /  12.3 °C 46 °F /  7.8 °C 30.4in /  1028.6hPa NE 2.4mph /  3.9km/h   74% 0in /  0.0mm CLR
03:10 54 °F /  12.2 °C 46.2 °F /  7.9 °C 30.4in /  1028.6hPa Calm     75% 0in /  0.0mm CLR
03:15 54 °F /  12.2 °C 46.2 °F /  7.9 °C 30.4in /  1028.6hPa Calm   2mph /  3.2km/h 75% 0in /  0.0mm CLR
03:20 53.8 °F /  12.1 °C 46 °F /  7.8 °C 30.4in /  1028.6hPa Calm   4mph /  6.4km/h 75% 0in /  0.0mm CLR
03:25 53.8 °F /  12.1 °C 46 °F /  7.8 °C 30.4in /  1028.6hPa Calm     75% 0in /  0.0mm CLR
03:30 53.6 °F /  12.0 °C 45.9 °F /  7.7 °C 30.4in /  1028.6hPa NE 1mph /  1.6km/h 3mph /  4.8km/h 75% 0in /  0.0mm CLR
03:35 53.4 °F /  11.9 °C 46 °F /  7.8 °C 30.4in /  1028.5hPa NE 1mph /  1.6km/h 3mph /  4.8km/h 76% 0in /  0.0mm CLR
03:40 53.4 °F /  11.9 °C 46 °F /  7.8 °C 30.4in /  1028.5hPa NE 1mph /  1.6km/h 3mph /  4.8km/h 76% 0in /  0.0mm CLR
03:45 53.2 °F /  11.8 °C 45.9 °F /  7.7 °C 30.4in /  1028.5hPa NE 1.4mph /  2.3km/h   76% 0in /  0.0mm CLR
03:50 53.2 °F /  11.8 °C 45.9 °F /  7.7 °C 30.4in /  1028.6hPa Calm   2mph /  3.2km/h 76% 0in /  0.0mm CLR
03:55 53.2 °F /  11.8 °C 46.2 °F /  7.9 °C 30.4in /  1028.6hPa Calm     77% 0in /  0.0mm CLR
04:00 53.1 °F /  11.7 °C 46 °F /  7.8 °C 30.4in /  1028.6hPa Calm   3mph /  4.8km/h 77% 0in /  0.0mm CLR
04:05 53.1 °F /  11.7 °C 46 °F /  7.8 °C 30.4in /  1028.7hPa Calm   4mph /  6.4km/h 77% 0in /  0.0mm CLR
04:10 53.1 °F /  11.7 °C 46 °F /  7.8 °C 30.4in /  1028.7hPa NW 1.8mph /  2.9km/h   77% 0in /  0.0mm CLR
04:15 53.1 °F /  11.7 °C 46 °F /  7.8 °C 30.4in /  1028.7hPa NW 1.8mph /  2.9km/h 3.5mph /  5.6km/h 77% 0in /  0.0mm CLR
04:20 52.9 °F /  11.6 °C 45.9 °F /  7.7 °C 30.4in /  1028.7hPa NW 1.4mph /  2.3km/h 4.6mph /  7.4km/h 77% 0in /  0.0mm CLR
04:25 52.9 °F /  11.6 °C 46.2 °F /  7.9 °C 30.4in /  1028.7hPa NW 1mph /  1.6km/h 5mph /  8.0km/h 78% 0in /  0.0mm CLR
04:30 52.5 °F /  11.4 °C 45.9 °F /  7.7 °C 30.4in /  1028.7hPa NW 1.4mph /  2.3km/h   78% 0in /  0.0mm CLR
04:35 52.5 °F /  11.4 °C 45.9 °F /  7.7 °C 30.4in /  1028.6hPa NW 1.4mph /  2.3km/h   78% 0in /  0.0mm CLR
04:40 52.3 °F /  11.3 °C 45.7 °F /  7.6 °C 30.4in /  1028.6hPa Calm     78% 0in /  0.0mm CLR
04:45 52.3 °F /  11.3 °C 46 °F /  7.8 °C 30.4in /  1028.6hPa Calm   4mph /  6.4km/h 79% 0in /  0.0mm CLR
04:50 52.2 °F /  11.2 °C 45.9 °F /  7.7 °C 30.4in /  1028.7hPa Calm     79% 0in /  0.0mm CLR
04:55 52.2 °F /  11.2 °C 45.9 °F /  7.7 °C 30.4in /  1028.7hPa Calm     79% 0in /  0.0mm CLR
05:00 52.2 °F /  11.2 °C 45.7 °F /  7.6 °C 30.4in /  1028.7hPa Calm     79% 0in /  0.0mm CLR
05:05 52 °F /  11.1 °C 45.7 °F /  7.6 °C 30.4in /  1028.6hPa Calm     79% 0in /  0.0mm CLR
05:10 51.8 °F /  11.0 °C 45.5 °F /  7.5 °C 30.4in /  1028.6hPa Calm     79% 0in /  0.0mm CLR
05:15 51.6 °F /  10.9 °C 45.3 °F /  7.4 °C 30.4in /  1028.6hPa Calm     79% 0in /  0.0mm CLR
05:20 51.6 °F /  10.9 °C 45.7 °F /  7.6 °C 30.4in /  1028.6hPa Calm   1.2mph /  1.9km/h 80% 0in /  0.0mm CLR
05:25 51.4 °F /  10.8 °C 45.5 °F /  7.5 °C 30.4in /  1028.6hPa Calm   2mph /  3.2km/h 80% 0in /  0.0mm CLR
05:30 51.4 °F /  10.8 °C 45.9 °F /  7.7 °C 30.4in /  1028.6hPa Calm   2.3mph /  3.7km/h 81% 0in /  0.0mm CLR
05:35 51.4 °F /  10.8 °C 45.9 °F /  7.7 °C 30.4in /  1028.7hPa Calm   2mph /  3.2km/h 81% 0in /  0.0mm CLR
05:40 51.4 °F /  10.8 °C 45.9 °F /  7.7 °C 30.4in /  1028.7hPa Calm     81% 0in /  0.0mm CLR
05:45 51.3 °F /  10.7 °C 46 °F /  7.8 °C 30.4in /  1028.7hPa Calm   2.3mph /  3.7km/h 82% 0in /  0.0mm CLR
05:50 51.1 °F /  10.6 °C 45.5 °F /  7.5 °C 30.4in /  1028.7hPa WSW 1.4mph /  2.3km/h   81% 0in /  0.0mm CLR
05:55 50.7 °F /  10.4 °C 45.1 °F /  7.3 °C 30.4in /  1028.7hPa WSW 1.4mph /  2.3km/h 2.3mph /  3.7km/h 81% 0in /  0.0mm CLR
06:00 50.7 °F /  10.4 °C 45.1 °F /  7.3 °C 30.4in /  1028.7hPa Calm   2mph /  3.2km/h 81% 0in /  0.0mm CLR
06:05 50.5 °F /  10.3 °C 45 °F /  7.2 °C 30.4in /  1028.9hPa Calm     81% 0in /  0.0mm CLR
06:10 50.4 °F /  10.2 °C 44.8 °F /  7.1 °C 30.4in /  1028.9hPa Calm   3mph /  4.8km/h 81% 0in /  0.0mm CLR
06:15 50.2 °F /  10.1 °C 44.6 °F /  7.0 °C 30.4in /  1028.9hPa Calm     81% 0in /  0.0mm CLR
06:20 50 °F /  10.0 °C 44.4 °F /  6.9 °C 30.4in /  1028.9hPa Calm     81% 0in /  0.0mm CLR
06:25 49.8 °F /  9.9 °C 44.2 °F /  6.8 °C 30.4in /  1028.9hPa Calm     81% 0in /  0.0mm CLR
06:30 49.6 °F /  9.8 °C 44.1 °F /  6.7 °C 30.4in /  1028.9hPa Calm     81% 0in /  0.0mm CLR
06:35 49.6 °F /  9.8 °C 44.4 °F /  6.9 °C 30.4in /  1029.1hPa Calm     82% 0in /  0.0mm CLR
06:40 49.5 °F /  9.7 °C 44.2 °F /  6.8 °C 30.4in /  1029.1hPa Calm   2mph /  3.2km/h 82% 0in /  0.0mm CLR
06:45 49.5 °F /  9.7 °C 44.4 °F /  6.9 °C 30.4in /  1029.1hPa Calm     83% 0in /  0.0mm CLR
06:50 49.3 °F /  9.6 °C 44.2 °F /  6.8 °C 30.4in /  1029.1hPa Calm     83% 0in /  0.0mm CLR
06:55 48.9 °F /  9.4 °C 44.1 °F /  6.7 °C 30.4in /  1029.1hPa Calm     83% 0in /  0.0mm CLR
07:00 48.9 °F /  9.4 °C 44.2 °F /  6.8 °C 30.4in /  1029.1hPa Calm   2mph /  3.2km/h 84% 0in /  0.0mm CLR
07:05 48.7 °F /  9.3 °C 44.1 °F /  6.7 °C 30.4in /  1029.1hPa Calm   2mph /  3.2km/h 84% 0in /  0.0mm CLR
07:10 48.6 °F /  9.2 °C 43.9 °F /  6.6 °C 30.4in /  1029.1hPa Calm   3.5mph /  5.6km/h 84% 0in /  0.0mm CLR
07:15 48.4 °F /  9.1 °C 44.1 °F /  6.7 °C 30.4in /  1029.1hPa Calm   4mph /  6.4km/h 85% 0in /  0.0mm CLR
07:20 48 °F /  8.9 °C 43.7 °F /  6.5 °C 30.4in /  1029.4hPa East 2mph /  3.2km/h 3.5mph /  5.6km/h 85% 0in /  0.0mm CLR
07:25 48 °F /  8.9 °C 44.1 °F /  6.7 °C 30.4in /  1029.4hPa East 2mph /  3.2km/h 2.3mph /  3.7km/h 86% 0in /  0.0mm CLR
07:30 47.8 °F /  8.8 °C 43.9 °F /  6.6 °C 30.4in /  1029.4hPa East 1.8mph /  2.9km/h 2.9mph /  4.7km/h 86% 0in /  0.0mm CLR
07:35 47.8 °F /  8.8 °C 43.9 °F /  6.6 °C 30.4in /  1029.5hPa East 1.8mph /  2.9km/h 2.4mph /  3.9km/h 86% 0in /  0.0mm CLR
07:40 47.8 °F /  8.8 °C 43.9 °F /  6.6 °C 30.4in /  1029.5hPa East 1.8mph /  2.9km/h   86% 0in /  0.0mm CLR
07:45 47.7 °F /  8.7 °C 43.3 °F /  6.3 °C 30.4in /  1029.5hPa ENE 1.8mph /  2.9km/h 2.3mph /  3.7km/h 85% 0in /  0.0mm CLR
07:50 47.5 °F /  8.6 °C 43.2 °F /  6.2 °C 30.4in /  1029.6hPa ENE 1.4mph /  2.3km/h 1.2mph /  1.9km/h 85% 0in /  0.0mm CLR
07:55 47.3 °F /  8.5 °C 43 °F /  6.1 °C 30.4in /  1029.6hPa ENE 1mph /  1.6km/h 1mph /  1.6km/h 85% 0in /  0.0mm CLR
08:00 47.1 °F /  8.4 °C 42.8 °F /  6.0 °C 30.4in /  1029.6hPa Calm     85% 0in /  0.0mm CLR
08:05 47.1 °F /  8.4 °C 42.8 °F /  6.0 °C 30.4in /  1029.8hPa Calm     85% 0in /  0.0mm CLR
08:10 46.9 °F /  8.3 °C 42.6 °F /  5.9 °C 30.4in /  1029.8hPa Calm   3mph /  4.8km/h 85% 0in /  0.0mm CLR
08:15 46.9 °F /  8.3 °C 43 °F /  6.1 °C 30.4in /  1029.8hPa Calm     86% 0in /  0.0mm CLR
08:20 46.9 °F /  8.3 °C 43 °F /  6.1 °C 30.4in /  1030.0hPa Calm     86% 0in /  0.0mm CLR
08:25 46.9 °F /  8.3 °C 43.3 °F /  6.3 °C 30.4in /  1030.0hPa Calm   3mph /  4.8km/h 87% 0in /  0.0mm CLR
08:30 47.1 °F /  8.4 °C 43.3 °F /  6.3 °C 30.4in /  1030.0hPa ENE 1.4mph /  2.3km/h 2.3mph /  3.7km/h 87% 0in /  0.0mm CLR
08:35 47.5 °F /  8.6 °C 43.9 °F /  6.6 °C 30.4in /  1030.2hPa ENE 1.4mph /  2.3km/h   87% 0in /  0.0mm CLR
08:40 47.7 °F /  8.7 °C 44.1 °F /  6.7 °C 30.4in /  1030.2hPa Calm     87% 0in /  0.0mm CLR
08:45 48 °F /  8.9 °C 44.4 °F /  6.9 °C 30.4in /  1030.2hPa Calm     87% 0in /  0.0mm CLR
08:50 48.6 °F /  9.2 °C 44.2 °F /  6.8 °C 30.4in /  1030.4hPa Calm   3.5mph /  5.6km/h 85% 0in /  0.0mm CLR
08:55 48.6 °F /  9.2 °C 43.9 °F /  6.6 °C 30.4in /  1030.4hPa Calm   3.6mph /  5.8km/h 84% 0in /  0.0mm CLR
09:00 48.6 °F /  9.2 °C 43.5 °F /  6.4 °C 30.4in /  1030.4hPa SSE 2mph /  3.2km/h 5mph /  8.0km/h 83% 0in /  0.0mm CLR
09:05 48.7 °F /  9.3 °C 43.9 °F /  6.6 °C 30.4in /  1030.6hPa South 2.4mph /  3.9km/h 4.6mph /  7.4km/h 83% 0in /  0.0mm CLR
09:10 48.9 °F /  9.4 °C 43.7 °F /  6.5 °C 30.4in /  1030.6hPa South 3mph /  4.8km/h 5mph /  8.0km/h 82% 0in /  0.0mm CLR
09:15 49.3 °F /  9.6 °C 43.9 °F /  6.6 °C 30.4in /  1030.6hPa South 3mph /  4.8km/h 6mph /  9.7km/h 82% 0in /  0.0mm CLR
09:20 49.6 °F /  9.8 °C 44.4 °F /  6.9 °C 30.4in /  1030.8hPa South 3.6mph /  5.8km/h 4.6mph /  7.4km/h 82% 0in /  0.0mm CLR
09:25 49.8 °F /  9.9 °C 44.4 °F /  6.9 °C 30.4in /  1030.8hPa SSE 3mph /  4.8km/h 6mph /  9.7km/h 82% 0in /  0.0mm CLR
09:30 50.4 °F /  10.2 °C 44.8 °F /  7.1 °C 30.4in /  1030.8hPa SSE 3.6mph /  5.8km/h 5.8mph /  9.3km/h 81% 0in /  0.0mm CLR
09:35 50.5 °F /  10.3 °C 45 °F /  7.2 °C 30.4in /  1030.9hPa SSW 3mph /  4.8km/h 7mph /  11.3km/h 81% 0in /  0.0mm CLR
09:40 50.7 °F /  10.4 °C 44.8 °F /  7.1 °C 30.4in /  1030.9hPa SSW 4.3mph /  6.9km/h 7.4mph /  11.9km/h 80% 0in /  0.0mm CLR
09:45 50.7 °F /  10.4 °C 44.8 °F /  7.1 °C 30.4in /  1030.9hPa SSW 5mph /  8.0km/h 7mph /  11.3km/h 80% 0in /  0.0mm CLR
09:50 50.7 °F /  10.4 °C 44.8 °F /  7.1 °C 30.5in /  1031.2hPa SSW 5.4mph /  8.7km/h 7.4mph /  11.9km/h 80% 0in /  0.0mm CLR
09:55 50.7 °F /  10.4 °C 45 °F /  7.2 °C 30.5in /  1031.2hPa SSW 6mph /  9.7km/h 7mph /  11.3km/h 80% 0in /  0.0mm CLR
10:00 51.1 °F /  10.6 °C 45.1 °F /  7.3 °C 30.5in /  1031.2hPa SSW 5mph /  8.0km/h 7mph /  11.3km/h 80% 0in /  0.0mm CLR
10:05 51.3 °F /  10.7 °C 45.3 °F /  7.4 °C 30.5in /  1031.2hPa SSW 5mph /  8.0km/h 7mph /  11.3km/h 80% 0in /  0.0mm CLR
10:10 51.6 °F /  10.9 °C 45.3 °F /  7.4 °C 30.5in /  1031.2hPa SSW 5mph /  8.0km/h 8mph /  12.9km/h 79% 0in /  0.0mm CLR
10:15 52 °F /  11.1 °C 45.7 °F /  7.6 °C 30.5in /  1031.2hPa SSW 4.3mph /  6.9km/h 6.9mph /  11.1km/h 79% 0in /  0.0mm CLR
10:20 52.3 °F /  11.3 °C 45.7 °F /  7.6 °C 30.5in /  1031.4hPa SSW 5mph /  8.0km/h 7mph /  11.3km/h 78% 0in /  0.0mm CLR
10:25 53.1 °F /  11.7 °C 45.7 °F /  7.6 °C 30.5in /  1031.4hPa SSW 4.7mph /  7.6km/h 4.6mph /  7.4km/h 76% 0in /  0.0mm CLR
10:30 53.2 °F /  11.8 °C 45.9 °F /  7.7 °C 30.5in /  1031.4hPa South 3mph /  4.8km/h 6mph /  9.7km/h 76% 0in /  0.0mm CLR
10:35 53.4 °F /  11.9 °C 45.7 °F /  7.6 °C 30.5in /  1031.6hPa SSW 3mph /  4.8km/h 5mph /  8.0km/h 75% 0in /  0.0mm CLR
10:40 54 °F /  12.2 °C 45.9 °F /  7.7 °C 30.5in /  1031.6hPa SSW 2mph /  3.2km/h 6mph /  9.7km/h 74% 0in /  0.0mm CLR
10:45 54.1 °F /  12.3 °C 46 °F /  7.8 °C 30.5in /  1031.6hPa ESE 2.4mph /  3.9km/h 4.6mph /  7.4km/h 74% 0in /  0.0mm CLR
10:50 54.9 °F /  12.7 °C 45.7 °F /  7.6 °C 30.5in /  1031.5hPa SE 3mph /  4.8km/h 5mph /  8.0km/h 71% 0in /  0.0mm CLR
10:55 55.2 °F /  12.9 °C 46 °F /  7.8 °C 30.5in /  1031.5hPa ESE 3mph /  4.8km/h 5mph /  8.0km/h 71% 0in /  0.0mm CLR
11:00 55.9 °F /  13.3 °C 45.9 °F /  7.7 °C 30.5in /  1031.5hPa SE 1mph /  1.6km/h 3mph /  4.8km/h 69% 0in /  0.0mm CLR
11:05 56.7 °F /  13.7 °C 45.3 °F /  7.4 °C 30.5in /  1031.7hPa SE 1.4mph /  2.3km/h 3.5mph /  5.6km/h 66% 0in /  0.0mm CLR
11:10 57 °F /  13.9 °C 45.3 °F /  7.4 °C 30.5in /  1031.7hPa SE 2mph /  3.2km/h 2.3mph /  3.7km/h 65% 0in /  0.0mm CLR
11:15 57.6 °F /  14.2 °C 45.9 °F /  7.7 °C 30.5in /  1031.7hPa SE 2mph /  3.2km/h 5mph /  8.0km/h 65% 0in /  0.0mm CLR
11:20 57.7 °F /  14.3 °C 44.8 °F /  7.1 °C 30.5in /  1031.7hPa ESE 2mph /  3.2km/h 8mph /  12.9km/h 62% 0in /  0.0mm CLR
11:25 57.4 °F /  14.1 °C 45 °F /  7.2 °C 30.5in /  1031.7hPa East 2mph /  3.2km/h 2.9mph /  4.7km/h 63% 0in /  0.0mm CLR
11:30 57.6 °F /  14.2 °C 44.6 °F /  7.0 °C 30.5in /  1031.7hPa ENE 3mph /  4.8km/h 7mph /  11.3km/h 62% 0in /  0.0mm CLR
11:35 57.6 °F /  14.2 °C 45.1 °F /  7.3 °C 30.5in /  1031.7hPa ENE 3.1mph /  5.0km/h 2.3mph /  3.7km/h 63% 0in /  0.0mm CLR
11:40 57.6 °F /  14.2 °C 45.1 °F /  7.3 °C 30.5in /  1031.7hPa NE 3.6mph /  5.8km/h 8.5mph /  13.7km/h 63% 0in /  0.0mm CLR
11:45 57.4 °F /  14.1 °C 45 °F /  7.2 °C 30.5in /  1031.7hPa ENE 3.6mph /  5.8km/h 6.2mph /  10.0km/h 63% 0in /  0.0mm CLR
11:50 57.7 °F /  14.3 °C 45.1 °F /  7.3 °C 30.5in /  1031.9hPa ENE 5.2mph /  8.4km/h 11.5mph /  18.5km/h 63% 0in /  0.0mm CLR
11:55 57.6 °F /  14.2 °C 45.1 °F /  7.3 °C 30.5in /  1031.9hPa NE 5.2mph /  8.4km/h 10.4mph /  16.7km/h 63% 0in /  0.0mm CLR
12:00 57.4 °F /  14.1 °C 45 °F /  7.2 °C 30.5in /  1031.9hPa NNE 6mph /  9.7km/h 12mph /  19.3km/h 63% 0in /  0.0mm CLR
12:05 57.6 °F /  14.2 °C 45.1 °F /  7.3 °C 30.5in /  1031.8hPa ESE 5.9mph /  9.5km/h 8.1mph /  13.0km/h 63% 0in /  0.0mm CLR
12:10 57.7 °F /  14.3 °C 44.8 °F /  7.1 °C 30.5in /  1031.8hPa NE 6mph /  9.7km/h 13mph /  20.9km/h 62% 0in /  0.0mm CLR
12:15 57.6 °F /  14.2 °C 44.2 °F /  6.8 °C 30.5in /  1031.8hPa NE 5.4mph /  8.7km/h 10.4mph /  16.7km/h 61% 0in /  0.0mm CLR
12:20 57.6 °F /  14.2 °C 44.6 °F /  7.0 °C 30.5in /  1031.7hPa NE 7mph /  11.3km/h 10mph /  16.1km/h 62% 0in /  0.0mm CLR
12:25 57.9 °F /  14.4 °C 44.4 °F /  6.9 °C 30.5in /  1031.7hPa East 7.4mph /  11.9km/h 8.1mph /  13.0km/h 61% 0in /  0.0mm CLR
12:30 58.5 °F /  14.7 °C 45 °F /  7.2 °C 30.5in /  1031.7hPa East 6mph /  9.7km/h 13mph /  20.9km/h 61% 0in /  0.0mm CLR
12:35 58.6 °F /  14.8 °C 44.2 °F /  6.8 °C 30.5in /  1031.5hPa ESE 5.4mph /  8.7km/h 5.8mph /  9.3km/h 59% 0in /  0.0mm CLR
12:40 59 °F /  15.0 °C 44.8 °F /  7.1 °C 30.5in /  1031.5hPa NE 5.9mph /  9.5km/h 11.5mph /  18.5km/h 59% 0in /  0.0mm CLR
12:45 58.8 °F /  14.9 °C 44.4 °F /  6.9 °C 30.5in /  1031.5hPa NNE 5.9mph /  9.5km/h 8.1mph /  13.0km/h 59% 0in /  0.0mm CLR
12:50 59.2 °F /  15.1 °C 43.5 °F /  6.4 °C 30.5in /  1031.3hPa NE 5.4mph /  8.7km/h 11.5mph /  18.5km/h 56% 0in /  0.0mm CLR
12:55 59.2 °F /  15.1 °C 43.5 °F /  6.4 °C 30.5in /  1031.3hPa North 5.4mph /  8.7km/h 10.4mph /  16.7km/h 56% 0in /  0.0mm CLR
13:00 59.4 °F /  15.2 °C 42.6 °F /  5.9 °C 30.5in /  1031.3hPa NE 7mph /  11.3km/h 13mph /  20.9km/h 54% 0in /  0.0mm CLR
13:05 59.5 °F /  15.3 °C 43.3 °F /  6.3 °C 30.5in /  1031.1hPa NE 7mph /  11.3km/h 13mph /  20.9km/h 55% 0in /  0.0mm CLR
13:10 59.4 °F /  15.2 °C 43.7 °F /  6.5 °C 30.5in /  1031.1hPa SE 5.9mph /  9.5km/h 3.5mph /  5.6km/h 56% 0in /  0.0mm CLR
13:15 59.7 °F /  15.4 °C 43 °F /  6.1 °C 30.5in /  1031.1hPa ESE 5.9mph /  9.5km/h 8.1mph /  13.0km/h 54% 0in /  0.0mm CLR
13:20 59.9 °F /  15.5 °C 43.2 °F /  6.2 °C 30.4in /  1031.0hPa ENE 4.3mph /  6.9km/h 4.6mph /  7.4km/h 54% 0in /  0.0mm CLR
13:25 59.7 °F /  15.4 °C 43 °F /  6.1 °C 30.4in /  1031.0hPa ESE 4.3mph /  6.9km/h 8.1mph /  13.0km/h 54% 0in /  0.0mm CLR
13:30 59.7 °F /  15.4 °C 43 °F /  6.1 °C 30.4in /  1031.0hPa NNE 4.3mph /  6.9km/h 3.5mph /  5.6km/h 54% 0in /  0.0mm CLR
13:35 59.7 °F /  15.4 °C 42.4 °F /  5.8 °C 30.4in /  1030.9hPa NE 5mph /  8.0km/h 9mph /  14.5km/h 53% 0in /  0.0mm CLR
13:40 59.5 °F /  15.3 °C 43 °F /  6.1 °C 30.4in /  1030.9hPa NNE 4mph /  6.4km/h 5.8mph /  9.3km/h 54% 0in /  0.0mm CLR
13:45 59.5 °F /  15.3 °C 43 °F /  6.1 °C 30.4in /  1030.9hPa NNE 4mph /  6.4km/h 10.4mph /  16.7km/h 54% 0in /  0.0mm CLR
13:50 59.4 °F /  15.2 °C 42.3 °F /  5.7 °C 30.4in /  1030.7hPa NNE 4.7mph /  7.6km/h 8.1mph /  13.0km/h 53% 0in /  0.0mm CLR
13:55 59.4 °F /  15.2 °C 42.6 °F /  5.9 °C 30.4in /  1030.7hPa NE 4.7mph /  7.6km/h 6.9mph /  11.1km/h 54% 0in /  0.0mm CLR
14:00 59.5 °F /  15.3 °C 41.9 °F /  5.5 °C 30.4in /  1030.7hPa NE 6mph /  9.7km/h 7mph /  11.3km/h 52% 0in /  0.0mm CLR
14:05 59.7 °F /  15.4 °C 43 °F /  6.1 °C 30.4in /  1030.6hPa NNE 5.4mph /  8.7km/h 6.9mph /  11.1km/h 54% 0in /  0.0mm CLR
14:10 59.7 °F /  15.4 °C 43.5 °F /  6.4 °C 30.4in /  1030.6hPa NNE 4mph /  6.4km/h 6.9mph /  11.1km/h 55% 0in /  0.0mm CLR
14:15 59.7 °F /  15.4 °C 43 °F /  6.1 °C 30.4in /  1030.6hPa North 4mph /  6.4km/h 10.4mph /  16.7km/h 54% 0in /  0.0mm CLR
14:20 59.4 °F /  15.2 °C 43.2 °F /  6.2 °C 30.4in /  1030.5hPa NE 6.4mph /  10.3km/h 8.1mph /  13.0km/h 55% 0in /  0.0mm CLR
14:25 59.5 °F /  15.3 °C 43.9 °F /  6.6 °C 30.4in /  1030.5hPa ENE 6.4mph /  10.3km/h 8.1mph /  13.0km/h 56% 0in /  0.0mm CLR
14:30 59.4 °F /  15.2 °C 44.1 °F /  6.7 °C 30.4in /  1030.5hPa ENE 5.2mph /  8.4km/h 11.5mph /  18.5km/h 57% 0in /  0.0mm CLR
14:35 59.4 °F /  15.2 °C 44.6 °F /  7.0 °C 30.4in /  1030.4hPa NE 5.2mph /  8.4km/h 9.2mph /  14.8km/h 58% 0in /  0.0mm CLR
14:40 59.2 °F /  15.1 °C 44.4 °F /  6.9 °C 30.4in /  1030.4hPa NE 8mph /  12.9km/h 12mph /  19.3km/h 58% 0in /  0.0mm CLR
14:45 59.4 °F /  15.2 °C 44.6 °F /  7.0 °C 30.4in /  1030.4hPa East 7.6mph /  12.2km/h 8.1mph /  13.0km/h 58% 0in /  0.0mm CLR
14:50 59.4 °F /  15.2 °C 44.1 °F /  6.7 °C 30.4in /  1030.4hPa NE 5.2mph /  8.4km/h 6.9mph /  11.1km/h 57% 0in /  0.0mm CLR
14:55 59.5 °F /  15.3 °C 44.2 °F /  6.8 °C 30.4in /  1030.4hPa East 5.2mph /  8.4km/h 8.1mph /  13.0km/h 57% 0in /  0.0mm CLR
15:00 59.5 °F /  15.3 °C 43.9 °F /  6.6 °C 30.4in /  1030.4hPa NE 5mph /  8.0km/h 8mph /  12.9km/h 56% 0in /  0.0mm CLR
15:05 59.5 °F /  15.3 °C 43.9 °F /  6.6 °C 30.4in /  1030.3hPa ESE 4.7mph /  7.6km/h 4.6mph /  7.4km/h 56% 0in /  0.0mm CLR
15:10 59.7 °F /  15.4 °C 44.1 °F /  6.7 °C 30.4in /  1030.3hPa ENE 4mph /  6.4km/h 9.2mph /  14.8km/h 56% 0in /  0.0mm CLR
15:15 59.9 °F /  15.5 °C 43.2 °F /  6.2 °C 30.4in /  1030.3hPa SSE 4mph /  6.4km/h 9.2mph /  14.8km/h 54% 0in /  0.0mm CLR
15:20 59.9 °F /  15.5 °C 42.6 °F /  5.9 °C 30.4in /  1030.3hPa SE 5.9mph /  9.5km/h 9.2mph /  14.8km/h 53% 0in /  0.0mm CLR
15:25 60.3 °F /  15.7 °C 42.1 °F /  5.6 °C 30.4in /  1030.3hPa ESE 5.9mph /  9.5km/h 6.9mph /  11.1km/h 51% 0in /  0.0mm CLR
15:30 60.3 °F /  15.7 °C 42.6 °F /  5.9 °C 30.4in /  1030.3hPa East 6.9mph /  11.1km/h 11.5mph /  18.5km/h 52% 0in /  0.0mm CLR
15:35 60.3 °F /  15.7 °C 42.6 °F /  5.9 °C 30.4in /  1030.2hPa ESE 6.9mph /  11.1km/h 9.2mph /  14.8km/h 52% 0in /  0.0mm CLR
15:40 60.6 °F /  15.9 °C 43.9 °F /  6.6 °C 30.4in /  1030.2hPa East 5.4mph /  8.7km/h 6.9mph /  11.1km/h 54% 0in /  0.0mm CLR
15:45 60.6 °F /  15.9 °C 43.9 °F /  6.6 °C 30.4in /  1030.2hPa East 5.4mph /  8.7km/h 8.5mph /  13.7km/h 54% 0in /  0.0mm CLR
15:50 60.6 °F /  15.9 °C 43.9 °F /  6.6 °C 30.4in /  1030.1hPa East 4.3mph /  6.9km/h 8.1mph /  13.0km/h 54% 0in /  0.0mm CLR
15:55 60.8 °F /  16.0 °C 44.1 °F /  6.7 °C 30.4in /  1030.1hPa East 5mph /  8.0km/h 6mph /  9.7km/h 54% 0in /  0.0mm CLR
16:00 61 °F /  16.1 °C 44.2 °F /  6.8 °C 30.4in /  1030.1hPa ESE 5mph /  8.0km/h 9mph /  14.5km/h 54% 0in /  0.0mm CLR
16:05 61.5 °F /  16.4 °C 44.2 °F /  6.8 °C 30.4in /  1030.0hPa South 4mph /  6.4km/h 6.9mph /  11.1km/h 53% 0in /  0.0mm CLR
16:10 61.5 °F /  16.4 °C 43.7 °F /  6.5 °C 30.4in /  1030.0hPa ESE 3mph /  4.8km/h 10mph /  16.1km/h 52% 0in /  0.0mm CLR
16:15 61.5 °F /  16.4 °C 43.7 °F /  6.5 °C 30.4in /  1030.0hPa NE 3.6mph /  5.8km/h 6.2mph /  10.0km/h 52% 0in /  0.0mm CLR
16:20 61.5 °F /  16.4 °C 43.7 °F /  6.5 °C 30.4in /  1030.0hPa East 5.9mph /  9.5km/h 9.2mph /  14.8km/h 52% 0in /  0.0mm CLR
16:25 61.2 °F /  16.2 °C 44.4 °F /  6.9 °C 30.4in /  1030.0hPa East 5.9mph /  9.5km/h 12.7mph /  20.4km/h 54% 0in /  0.0mm CLR
16:30 61 °F /  16.1 °C 44.8 °F /  7.1 °C 30.4in /  1030.0hPa NE 7.4mph /  11.9km/h 9.2mph /  14.8km/h 55% 0in /  0.0mm CLR
16:35 60.4 °F /  15.8 °C 44.8 °F /  7.1 °C 30.4in /  1030.1hPa NNW 7.4mph /  11.9km/h 10.4mph /  16.7km/h 56% 0in /  0.0mm CLR
16:40 60.1 °F /  15.6 °C 44.8 °F /  7.1 °C 30.4in /  1030.1hPa NNE 6.4mph /  10.3km/h 8.1mph /  13.0km/h 57% 0in /  0.0mm CLR
16:45 60.1 °F /  15.6 °C 44.8 °F /  7.1 °C 30.4in /  1030.1hPa NE 7mph /  11.3km/h 10mph /  16.1km/h 57% 0in /  0.0mm CLR
16:50 60.1 °F /  15.6 °C 45.1 °F /  7.3 °C 30.4in /  1030.1hPa ENE 5.2mph /  8.4km/h 10.4mph /  16.7km/h 58% 0in /  0.0mm CLR
16:55 59.7 °F /  15.4 °C 45 °F /  7.2 °C 30.4in /  1030.1hPa East 5.2mph /  8.4km/h 8.1mph /  13.0km/h 58% 0in /  0.0mm CLR
17:00 59.5 °F /  15.3 °C 44.8 °F /  7.1 °C 30.4in /  1030.1hPa ENE 6mph /  9.7km/h 10mph /  16.1km/h 58% 0in /  0.0mm CLR
17:05 59.4 °F /  15.2 °C 44.6 °F /  7.0 °C 30.4in /  1030.2hPa NE 5.9mph /  9.5km/h 6.9mph /  11.1km/h 58% 0in /  0.0mm CLR
17:10 59.4 °F /  15.2 °C 44.6 °F /  7.0 °C 30.4in /  1030.2hPa East 5.9mph /  9.5km/h 9.2mph /  14.8km/h 58% 0in /  0.0mm CLR
17:15 59.2 °F /  15.1 °C 44.4 °F /  6.9 °C 30.4in /  1030.2hPa East 5.9mph /  9.5km/h 8.1mph /  13.0km/h 58% 0in /  0.0mm CLR
17:20 59.2 °F /  15.1 °C 45 °F /  7.2 °C 30.4in /  1030.2hPa ENE 5.4mph /  8.7km/h 8.1mph /  13.0km/h 59% 0in /  0.0mm CLR
17:25 59 °F /  15.0 °C 44.8 °F /  7.1 °C 30.4in /  1030.2hPa NE 5.4mph /  8.7km/h 6.9mph /  11.1km/h 59% 0in /  0.0mm CLR
17:30 58.8 °F /  14.9 °C 44.4 °F /  6.9 °C 30.4in /  1030.2hPa North 5.4mph /  8.7km/h 5.8mph /  9.3km/h 59% 0in /  0.0mm CLR
17:35 58.8 °F /  14.9 °C 45 °F /  7.2 °C 30.4in /  1030.3hPa ENE 6mph /  9.7km/h 7mph /  11.3km/h 60% 0in /  0.0mm CLR
17:40 58.8 °F /  14.9 °C 45 °F /  7.2 °C 30.4in /  1030.3hPa East 4mph /  6.4km/h 9.2mph /  14.8km/h 60% 0in /  0.0mm CLR
17:45 58.8 °F /  14.9 °C 45 °F /  7.2 °C 30.4in /  1030.3hPa NE 4mph /  6.4km/h 6.9mph /  11.1km/h 60% 0in /  0.0mm CLR
17:50 58.6 °F /  14.8 °C 44.8 °F /  7.1 °C 30.4in /  1030.4hPa ENE 5mph /  8.0km/h 8mph /  12.9km/h 60% 0in /  0.0mm CLR
17:55 58.6 °F /  14.8 °C 44.8 °F /  7.1 °C 30.4in /  1030.4hPa ENE 4.7mph /  7.6km/h 5.9mph /  9.5km/h 60% 0in /  0.0mm CLR
18:00 58.6 °F /  14.8 °C 44.8 °F /  7.1 °C 30.4in /  1030.4hPa East 5mph /  8.0km/h 8mph /  12.9km/h 60% 0in /  0.0mm CLR
18:05 58.5 °F /  14.7 °C 44.6 °F /  7.0 °C 30.4in /  1030.4hPa ESE 4mph /  6.4km/h 6.9mph /  11.1km/h 60% 0in /  0.0mm CLR
18:10 58.3 °F /  14.6 °C 45 °F /  7.2 °C 30.4in /  1030.4hPa East 5mph /  8.0km/h 10mph /  16.1km/h 61% 0in /  0.0mm CLR
18:15 57.9 °F /  14.4 °C 45 °F /  7.2 °C 30.4in /  1030.4hPa ESE 4.7mph /  7.6km/h 10.4mph /  16.7km/h 62% 0in /  0.0mm CLR
18:20 57.9 °F /  14.4 °C 45.3 °F /  7.4 °C 30.4in /  1030.4hPa East 5.9mph /  9.5km/h 8.1mph /  13.0km/h 63% 0in /  0.0mm CLR
18:25 57.6 °F /  14.2 °C 45.5 °F /  7.5 °C 30.4in /  1030.4hPa ESE 5.9mph /  9.5km/h 8.1mph /  13.0km/h 64% 0in /  0.0mm CLR
18:30 57.4 °F /  14.1 °C 45.3 °F /  7.4 °C 30.4in /  1030.4hPa East 5.4mph /  8.7km/h 5.8mph /  9.3km/h 64% 0in /  0.0mm CLR
18:35 57.2 °F /  14.0 °C 45.5 °F /  7.5 °C 30.4in /  1030.5hPa ESE 5.4mph /  8.7km/h 10.4mph /  16.7km/h 65% 0in /  0.0mm CLR
18:40 57 °F /  13.9 °C 45.9 °F /  7.7 °C 30.4in /  1030.5hPa SE 5.9mph /  9.5km/h 6.9mph /  11.1km/h 66% 0in /  0.0mm CLR
18:45 56.8 °F /  13.8 °C 46 °F /  7.8 °C 30.4in /  1030.5hPa ESE 5.9mph /  9.5km/h 4.6mph /  7.4km/h 67% 0in /  0.0mm CLR
18:50 56.7 °F /  13.7 °C 45.9 °F /  7.7 °C 30.4in /  1030.6hPa East 4.7mph /  7.6km/h 6.9mph /  11.1km/h 67% 0in /  0.0mm CLR
18:55 56.7 °F /  13.7 °C 45.9 °F /  7.7 °C 30.4in /  1030.6hPa ENE 4.7mph /  7.6km/h 4.6mph /  7.4km/h 67% 0in /  0.0mm CLR
19:00 56.5 °F /  13.6 °C 46 °F /  7.8 °C 30.4in /  1030.6hPa East 5mph /  8.0km/h 6mph /  9.7km/h 68% 0in /  0.0mm CLR
19:05 56.5 °F /  13.6 °C 46 °F /  7.8 °C 30.4in /  1030.8hPa East 4mph /  6.4km/h 4.6mph /  7.4km/h 68% 0in /  0.0mm CLR
19:10 56.3 °F /  13.5 °C 45.9 °F /  7.7 °C 30.4in /  1030.8hPa East 3.1mph /  5.0km/h 4.6mph /  7.4km/h 68% 0in /  0.0mm CLR
19:15 56.1 °F /  13.4 °C 46 °F /  7.8 °C 30.4in /  1030.8hPa East 3.1mph /  5.0km/h 4.6mph /  7.4km/h 69% 0in /  0.0mm CLR
19:20 56.1 °F /  13.4 °C 46 °F /  7.8 °C 30.4in /  1030.9hPa East 2.9mph /  4.7km/h 4.6mph /  7.4km/h 69% 0in /  0.0mm CLR
19:25 55.9 °F /  13.3 °C 45.9 °F /  7.7 °C 30.4in /  1030.9hPa East 2.9mph /  4.7km/h 5.8mph /  9.3km/h 69% 0in /  0.0mm CLR
19:30 55.8 °F /  13.2 °C 46 °F /  7.8 °C 30.4in /  1030.9hPa ESE 2.9mph /  4.7km/h 4.6mph /  7.4km/h 70% 0in /  0.0mm CLR
19:35 55.6 °F /  13.1 °C 45.9 °F /  7.7 °C 30.5in /  1031.1hPa East 2.9mph /  4.7km/h 4.6mph /  7.4km/h 70% 0in /  0.0mm CLR
19:40 55.2 °F /  12.9 °C 46 °F /  7.8 °C 30.5in /  1031.1hPa East 2mph /  3.2km/h 5mph /  8.0km/h 71% 0in /  0.0mm CLR
19:45 55.2 °F /  12.9 °C 46 °F /  7.8 °C 30.5in /  1031.1hPa NNE 2.4mph /  3.9km/h 4.6mph /  7.4km/h 71% 0in /  0.0mm CLR
19:50 55 °F /  12.8 °C 46.2 °F /  7.9 °C 30.5in /  1031.2hPa NNE 2.9mph /  4.7km/h 4.6mph /  7.4km/h 72% 0in /  0.0mm CLR
19:55 54.7 °F /  12.6 °C 46.2 °F /  7.9 °C 30.5in /  1031.2hPa North 2.9mph /  4.7km/h 4.7mph /  7.6km/h 73% 0in /  0.0mm CLR
20:00 54.1 °F /  12.3 °C 46 °F /  7.8 °C 30.5in /  1031.2hPa NNE 3mph /  4.8km/h 5mph /  8.0km/h 74% 0in /  0.0mm CLR
20:05 53.8 °F /  12.1 °C 46 °F /  7.8 °C 30.5in /  1031.3hPa NE 3.1mph /  5.0km/h 3.5mph /  5.6km/h 75% 0in /  0.0mm CLR
20:10 53.4 °F /  11.9 °C 46 °F /  7.8 °C 30.5in /  1031.3hPa NNE 2.4mph /  3.9km/h 4.6mph /  7.4km/h 76% 0in /  0.0mm CLR
20:15 53.1 °F /  11.7 °C 46 °F /  7.8 °C 30.5in /  1031.3hPa North 2.4mph /  3.9km/h 4.6mph /  7.4km/h 77% 0in /  0.0mm CLR
20:20 52.9 °F /  11.6 °C 45.9 °F /  7.7 °C 30.5in /  1031.3hPa NNE 3.1mph /  5.0km/h 4.6mph /  7.4km/h 77% 0in /  0.0mm CLR
20:25 52.7 °F /  11.5 °C 46 °F /  7.8 °C 30.5in /  1031.3hPa NE 3.1mph /  5.0km/h 4.6mph /  7.4km/h 78% 0in /  0.0mm CLR
20:30 52.5 °F /  11.4 °C 45.9 °F /  7.7 °C 30.5in /  1031.3hPa NE 3.1mph /  5.0km/h 4.7mph /  7.6km/h 78% 0in /  0.0mm CLR
20:35 52.3 °F /  11.3 °C 46 °F /  7.8 °C 30.5in /  1031.3hPa NNE 3.1mph /  5.0km/h 4.7mph /  7.6km/h 79% 0in /  0.0mm CLR
20:40 52.2 °F /  11.2 °C 45.9 °F /  7.7 °C 30.5in /  1031.3hPa NNE 3.6mph /  5.8km/h 4.6mph /  7.4km/h 79% 0in /  0.0mm CLR
20:45 52.2 °F /  11.2 °C 46.2 °F /  7.9 °C 30.5in /  1031.3hPa NNE 3.6mph /  5.8km/h 5.8mph /  9.3km/h 80% 0in /  0.0mm CLR
20:50 52 °F /  11.1 °C 46 °F /  7.8 °C 30.5in /  1031.3hPa North 4mph /  6.4km/h 4.6mph /  7.4km/h 80% 0in /  0.0mm CLR
20:55 51.6 °F /  10.9 °C 45.7 °F /  7.6 °C 30.5in /  1031.3hPa North 5mph /  8.0km/h 5mph /  8.0km/h 80% 0in /  0.0mm CLR
21:00 51.6 °F /  10.9 °C 45.7 °F /  7.6 °C 30.5in /  1031.3hPa North 2mph /  3.2km/h 5mph /  8.0km/h 80% 0in /  0.0mm CLR
21:05 51.4 °F /  10.8 °C 45.9 °F /  7.7 °C 30.5in /  1031.4hPa North 2mph /  3.2km/h 6mph /  9.7km/h 81% 0in /  0.0mm CLR
21:10 51.4 °F /  10.8 °C 45.9 °F /  7.7 °C 30.5in /  1031.4hPa NNE 2.9mph /  4.7km/h 4.6mph /  7.4km/h 81% 0in /  0.0mm CLR
21:15 51.3 °F /  10.7 °C 46 °F /  7.8 °C 30.5in /  1031.4hPa NE 2.9mph /  4.7km/h 5.8mph /  9.3km/h 82% 0in /  0.0mm CLR
21:20 51.3 °F /  10.7 °C 46 °F /  7.8 °C 30.5in /  1031.5hPa NE 3.6mph /  5.8km/h 5.8mph /  9.3km/h 82% 0in /  0.0mm CLR
21:25 51.4 °F /  10.8 °C 46 °F /  7.8 °C 30.5in /  1031.5hPa NE 3.6mph /  5.8km/h 5.8mph /  9.3km/h 82% 0in /  0.0mm CLR
21:30 51.4 °F /  10.8 °C 46 °F /  7.8 °C 30.5in /  1031.5hPa NE 5mph /  8.0km/h 7mph /  11.3km/h 82% 0in /  0.0mm CLR
21:35 51.6 °F /  10.9 °C 46.2 °F /  7.9 °C 30.5in /  1031.5hPa NNE 4mph /  6.4km/h 8.1mph /  13.0km/h 82% 0in /  0.0mm CLR
21:40 51.8 °F /  11.0 °C 46.2 °F /  7.9 °C 30.5in /  1031.5hPa NNE 5.2mph /  8.4km/h 5.8mph /  9.3km/h 81% 0in /  0.0mm CLR
21:45 51.6 °F /  10.9 °C 46 °F /  7.8 °C 30.5in /  1031.5hPa NE 5.2mph /  8.4km/h 5.8mph /  9.3km/h 81% 0in /  0.0mm CLR
21:50 51.6 °F /  10.9 °C 46 °F /  7.8 °C 30.5in /  1031.5hPa NNE 3.1mph /  5.0km/h 4.6mph /  7.4km/h 81% 0in /  0.0mm CLR
21:55 51.4 °F /  10.8 °C 45.9 °F /  7.7 °C 30.5in /  1031.5hPa NNE 3.1mph /  5.0km/h   81% 0in /  0.0mm CLR
22:00 51.4 °F /  10.8 °C 45.9 °F /  7.7 °C 30.5in /  1031.5hPa NNE 2mph /  3.2km/h 3mph /  4.8km/h 81% 0in /  0.0mm CLR
22:05 51.3 °F /  10.7 °C 46 °F /  7.8 °C 30.5in /  1031.5hPa NNE 2mph /  3.2km/h 4.6mph /  7.4km/h 82% 0in /  0.0mm CLR
22:10 51.3 °F /  10.7 °C 46 °F /  7.8 °C 30.5in /  1031.5hPa NNE 2mph /  3.2km/h 2.4mph /  3.9km/h 82% 0in /  0.0mm CLR
22:15 51.1 °F /  10.6 °C 45.9 °F /  7.7 °C 30.5in /  1031.5hPa NNE 2mph /  3.2km/h 3.5mph /  5.6km/h 82% 0in /  0.0mm CLR
22:20 50.9 °F /  10.5 °C 45.7 °F /  7.6 °C 30.5in /  1031.6hPa NNE 1.4mph /  2.3km/h   82% 0in /  0.0mm CLR
22:25 50.7 °F /  10.4 °C 45.7 °F /  7.6 °C 30.5in /  1031.6hPa NNE 1.4mph /  2.3km/h 2.9mph /  4.7km/h 83% 0in /  0.0mm CLR
22:30 50.7 °F /  10.4 °C 45.7 °F /  7.6 °C 30.5in /  1031.6hPa NNE 1.4mph /  2.3km/h 2.3mph /  3.7km/h 83% 0in /  0.0mm CLR
22:35 50.5 °F /  10.3 °C 45.7 °F /  7.6 °C 30.5in /  1031.7hPa NNE 1mph /  1.6km/h 3mph /  4.8km/h 83% 0in /  0.0mm CLR
22:40 50.5 °F /  10.3 °C 45.7 °F /  7.6 °C 30.5in /  1031.7hPa NNE 1.4mph /  2.3km/h   83% 0in /  0.0mm CLR
22:45 50.4 °F /  10.2 °C 45.3 °F /  7.4 °C 30.5in /  1031.7hPa NNE 1.4mph /  2.3km/h 2.3mph /  3.7km/h 83% 0in /  0.0mm CLR
22:50 50.4 °F /  10.2 °C 45.7 °F /  7.6 °C 30.5in /  1031.7hPa Calm     84% 0in /  0.0mm CLR
22:55 50.4 °F /  10.2 °C 45.7 °F /  7.6 °C 30.5in /  1031.7hPa Calm   3.5mph /  5.6km/h 84% 0in /  0.0mm CLR
23:00 50.2 °F /  10.1 °C 45.5 °F /  7.5 °C 30.5in /  1031.7hPa NNE 2mph /  3.2km/h 4mph /  6.4km/h 84% 0in /  0.0mm CLR
23:05 50.2 °F /  10.1 °C 45.5 °F /  7.5 °C 30.5in /  1031.7hPa NNE 1.8mph /  2.9km/h 1.2mph /  1.9km/h 84% 0in /  0.0mm CLR
23:10 50.2 °F /  10.1 °C 45.5 °F /  7.5 °C 30.5in /  1031.7hPa NNE 1.4mph /  2.3km/h 2.3mph /  3.7km/h 84% 0in /  0.0mm CLR
23:15 50.2 °F /  10.1 °C 45.5 °F /  7.5 °C 30.5in /  1031.7hPa NNE 1.4mph /  2.3km/h 2.4mph /  3.9km/h 84% 0in /  0.0mm CLR
23:20 50 °F /  10.0 °C 45.3 °F /  7.4 °C 30.5in /  1031.6hPa Calm   2.3mph /  3.7km/h 84% 0in /  0.0mm CLR
23:25 49.8 °F /  9.9 °C 45.1 °F /  7.3 °C 30.5in /  1031.6hPa Calm     84% 0in /  0.0mm CLR
23:30 49.8 °F /  9.9 °C 45.1 °F /  7.3 °C 30.5in /  1031.6hPa Calm     84% 0in /  0.0mm CLR
23:35 49.8 °F /  9.9 °C 45.1 °F /  7.3 °C 30.5in /  1031.6hPa Calm     84% 0in /  0.0mm CLR
23:40 49.6 °F /  9.8 °C 45 °F /  7.2 °C 30.5in /  1031.6hPa Calm     84% 0in /  0.0mm CLR
23:45 49.5 °F /  9.7 °C 44.8 °F /  7.1 °C 30.5in /  1031.6hPa Calm     84% 0in /  0.0mm CLR
23:50 49.3 °F /  9.6 °C 44.6 °F /  7.0 °C 30.5in /  1031.5hPa Calm     84% 0in /  0.0mm CLR
23:55 49.3 °F /  9.6 °C 44.6 °F /  7.0 °C 30.5in /  1031.5hPa Calm     84% 0in /  0.0mm CLR
Murcia-Puente Tocinos, España
Compliments of Weather Underground - 2.75 mb

La estación de MeteoMurcia.com, publica sus datos en los siguientes proyectos:

Weather Underground PWS IMURCIAP2 Meteoclimatic www.awekas.at

W3Counter
Web Analytics